createdAt,value
2022-11-03T00:00:12.938Z,1016.45
2022-11-03T00:01:11.822Z,1016.45
2022-11-03T00:02:11.890Z,1016.47
2022-11-03T00:03:11.768Z,1016.49
2022-11-03T00:04:11.759Z,1016.55
2022-11-03T00:05:11.784Z,1016.57
2022-11-03T00:06:11.838Z,1016.54
2022-11-03T00:07:11.750Z,1016.51
2022-11-03T00:09:11.756Z,1016.51
2022-11-03T00:10:12.590Z,1016.51
2022-11-03T00:11:11.744Z,1016.49
2022-11-03T00:12:11.754Z,1016.46
2022-11-03T00:13:11.762Z,1016.50
2022-11-03T00:14:11.768Z,1016.50
2022-11-03T00:15:11.739Z,1016.47
2022-11-03T00:16:11.737Z,1016.46
2022-11-03T00:17:12.684Z,1016.50
2022-11-03T00:18:11.746Z,1016.48
2022-11-03T00:19:11.749Z,1016.47
2022-11-03T00:20:11.737Z,1016.53
2022-11-03T00:21:11.739Z,1016.44
2022-11-03T00:22:11.719Z,1016.52
2022-11-03T00:23:11.844Z,1016.49
2022-11-03T00:24:11.866Z,1016.43
2022-11-03T00:25:11.764Z,1016.43
2022-11-03T00:26:11.702Z,1016.42
2022-11-03T00:27:11.723Z,1016.41
2022-11-03T00:28:11.738Z,1016.40
2022-11-03T00:29:11.745Z,1016.40
2022-11-03T00:30:11.716Z,1016.41
2022-11-03T00:31:11.696Z,1016.42
2022-11-03T00:32:11.714Z,1016.39
2022-11-03T00:33:11.702Z,1016.41
2022-11-03T00:34:11.701Z,1016.40
2022-11-03T00:35:11.745Z,1016.42
2022-11-03T00:36:11.724Z,1016.37
2022-11-03T00:37:11.752Z,1016.36
2022-11-03T00:38:11.738Z,1016.34
2022-11-03T00:39:11.689Z,1016.36
2022-11-03T00:40:11.695Z,1016.28
2022-11-03T00:41:11.677Z,1016.28
2022-11-03T00:42:11.680Z,1016.29
2022-11-03T00:43:11.692Z,1016.26
2022-11-03T00:44:11.678Z,1016.22
2022-11-03T00:45:11.699Z,1016.21
2022-11-03T00:46:11.672Z,1016.23
2022-11-03T00:47:11.785Z,1016.19
2022-11-03T00:48:11.722Z,1016.15
2022-11-03T00:49:11.669Z,1016.16
2022-11-03T00:50:11.659Z,1016.13
2022-11-03T00:51:11.686Z,1016.09
2022-11-03T00:52:11.656Z,1016.12
2022-11-03T00:53:11.672Z,1016.12
2022-11-03T00:54:11.709Z,1016.16
2022-11-03T00:55:11.660Z,1016.14
2022-11-03T00:56:11.669Z,1016.09
2022-11-03T00:57:11.664Z,1016.07
2022-11-03T00:58:11.694Z,1016.10
2022-11-03T00:59:11.689Z,1016.15
2022-11-03T01:00:11.737Z,1016.14
2022-11-03T01:01:12.705Z,1016.13
2022-11-03T01:02:11.834Z,1016.10
2022-11-03T01:03:11.660Z,1016.12
2022-11-03T01:04:11.630Z,1016.13
2022-11-03T01:05:11.651Z,1016.13
2022-11-03T01:06:11.630Z,1016.10
2022-11-03T01:07:11.662Z,1016.09
2022-11-03T01:08:11.610Z,1016.09
2022-11-03T01:09:11.655Z,1016.10
2022-11-03T01:10:11.617Z,1016.09
2022-11-03T01:11:11.605Z,1016.06
2022-11-03T01:12:11.616Z,1016.06
2022-11-03T01:13:11.621Z,1016.09
2022-11-03T01:14:11.607Z,1016.12
2022-11-03T01:15:11.614Z,1016.12
2022-11-03T01:16:11.591Z,1016.03
2022-11-03T01:17:11.690Z,1016.03
2022-11-03T01:18:11.603Z,1016.03
2022-11-03T01:19:11.606Z,1016.08
2022-11-03T01:20:11.591Z,1016.08
2022-11-03T01:21:11.597Z,1016.06
2022-11-03T01:22:11.604Z,1016.01
2022-11-03T01:23:11.572Z,1015.99
2022-11-03T01:24:11.666Z,1016.01
2022-11-03T01:25:11.597Z,1015.95
2022-11-03T01:26:11.577Z,1016.03
2022-11-03T01:27:11.604Z,1015.90
2022-11-03T01:28:11.588Z,1015.98
2022-11-03T01:29:11.576Z,1015.95
2022-11-03T01:30:11.592Z,1015.96
2022-11-03T01:31:11.591Z,1015.99
2022-11-03T01:32:11.593Z,1015.98
2022-11-03T01:33:11.557Z,1015.98
2022-11-03T01:34:11.557Z,1015.97
2022-11-03T01:35:11.548Z,1016.02
2022-11-03T01:36:11.562Z,1015.96
2022-11-03T01:37:11.556Z,1016.02
2022-11-03T01:38:11.549Z,1015.97
2022-11-03T01:39:11.555Z,1015.98
2022-11-03T01:40:11.549Z,1016.04
2022-11-03T01:41:11.611Z,1016.05
2022-11-03T01:42:11.563Z,1016.00
2022-11-03T01:43:11.585Z,1016.00
2022-11-03T01:44:11.537Z,1015.97
2022-11-03T01:45:11.532Z,1015.93
2022-11-03T01:46:11.724Z,1015.94
2022-11-03T01:47:11.530Z,1015.97
2022-11-03T01:48:19.088Z,1015.96
2022-11-03T01:49:11.513Z,1016.03
2022-11-03T01:50:11.528Z,1015.97
2022-11-03T01:51:11.508Z,1016.00
2022-11-03T01:52:11.513Z,1016.01
2022-11-03T01:53:11.532Z,1016.00
2022-11-03T01:54:11.524Z,1016.02
2022-11-03T01:55:11.512Z,1016.05
2022-11-03T01:56:11.507Z,1016.06
2022-11-03T01:57:11.499Z,1016.09
2022-11-03T01:58:11.511Z,1016.10
2022-11-03T01:59:11.509Z,1016.05
2022-11-03T02:00:11.491Z,1016.02
2022-11-03T02:01:11.549Z,1015.99
2022-11-03T02:02:11.733Z,1015.91
2022-11-03T02:03:11.488Z,1015.92
2022-11-03T02:04:11.470Z,1015.94
2022-11-03T02:05:11.474Z,1015.96
2022-11-03T02:06:11.475Z,1015.91
2022-11-03T02:07:11.483Z,1015.88
2022-11-03T02:08:11.512Z,1015.87
2022-11-03T02:09:11.465Z,1015.89
2022-11-03T02:10:11.504Z,1015.85
2022-11-03T02:11:11.471Z,1015.83
2022-11-03T02:12:11.451Z,1015.84
2022-11-03T02:13:11.451Z,1015.81
2022-11-03T02:14:11.476Z,1015.82
2022-11-03T02:15:11.450Z,1015.79
2022-11-03T02:16:11.456Z,1015.76
2022-11-03T02:17:11.443Z,1015.73
2022-11-03T02:18:11.438Z,1015.69
2022-11-03T02:19:11.452Z,1015.68
2022-11-03T02:20:11.463Z,1015.65
2022-11-03T02:21:11.444Z,1015.64
2022-11-03T02:22:11.427Z,1015.61
2022-11-03T02:23:11.427Z,1015.62
2022-11-03T02:24:11.423Z,1015.62
2022-11-03T02:25:11.448Z,1015.63
2022-11-03T02:26:11.421Z,1015.64
2022-11-03T02:27:11.431Z,1015.61
2022-11-03T02:28:11.423Z,1015.65
2022-11-03T02:29:11.416Z,1015.64
2022-11-03T02:30:11.417Z,1015.58
2022-11-03T02:31:11.428Z,1015.61
2022-11-03T02:32:11.408Z,1015.63
2022-11-03T02:33:11.423Z,1015.66
2022-11-03T02:34:11.429Z,1015.69
2022-11-03T02:35:11.411Z,1015.65
2022-11-03T02:36:11.403Z,1015.69
2022-11-03T02:37:11.407Z,1015.65
2022-11-03T02:38:11.414Z,1015.62
2022-11-03T02:39:11.393Z,1015.66
2022-11-03T02:40:11.420Z,1015.59
2022-11-03T02:41:11.384Z,1015.61
2022-11-03T02:42:11.401Z,1015.65
2022-11-03T02:43:11.384Z,1015.59
2022-11-03T02:44:11.376Z,1015.60
2022-11-03T02:45:14.762Z,1015.57
2022-11-03T02:46:11.379Z,1015.61
2022-11-03T02:47:11.388Z,1015.54
2022-11-03T02:48:11.365Z,1015.55
2022-11-03T02:49:11.358Z,1015.54
2022-11-03T02:50:11.384Z,1015.47
2022-11-03T02:51:11.354Z,1015.51
2022-11-03T02:52:11.358Z,1015.49
2022-11-03T02:53:11.364Z,1015.45
2022-11-03T02:54:11.364Z,1015.48
2022-11-03T02:55:11.355Z,1015.45
2022-11-03T02:56:11.379Z,1015.50
2022-11-03T02:57:11.356Z,1015.44
2022-11-03T02:58:11.340Z,1015.39
2022-11-03T02:59:11.336Z,1015.43
2022-11-03T03:00:11.330Z,1015.38
2022-11-03T03:01:11.475Z,1015.40
2022-11-03T03:02:11.487Z,1015.35
2022-11-03T03:03:11.326Z,1015.36
2022-11-03T03:04:11.333Z,1015.34
2022-11-03T03:05:11.332Z,1015.35
2022-11-03T03:06:11.335Z,1015.33
2022-11-03T03:07:11.312Z,1015.35
2022-11-03T03:08:11.351Z,1015.29
2022-11-03T03:09:11.317Z,1015.32
2022-11-03T03:10:11.306Z,1015.28
2022-11-03T03:11:11.302Z,1015.31
2022-11-03T03:12:11.302Z,1015.26
2022-11-03T03:13:11.311Z,1015.27
2022-11-03T03:14:11.321Z,1015.25
2022-11-03T03:15:11.302Z,1015.24
2022-11-03T03:16:11.304Z,1015.24
2022-11-03T03:17:11.296Z,1015.25
2022-11-03T03:18:11.291Z,1015.25
2022-11-03T03:19:11.301Z,1015.27
2022-11-03T03:20:11.294Z,1015.31
2022-11-03T03:21:11.273Z,1015.23
2022-11-03T03:22:11.304Z,1015.28
2022-11-03T03:23:11.773Z,1015.26
2022-11-03T03:24:11.273Z,1015.21
2022-11-03T03:25:11.303Z,1015.24
2022-11-03T03:26:11.300Z,1015.23
2022-11-03T03:27:11.271Z,1015.22
2022-11-03T03:28:11.270Z,1015.21
2022-11-03T03:29:11.273Z,1015.25
2022-11-03T03:30:11.258Z,1015.22
2022-11-03T03:31:11.259Z,1015.24
2022-11-03T03:32:11.266Z,1015.22
2022-11-03T03:33:11.293Z,1015.24
2022-11-03T03:34:31.397Z,1015.17
2022-11-03T03:35:11.248Z,1015.16
2022-11-03T03:36:11.243Z,1015.17
2022-11-03T03:37:11.264Z,1015.17
2022-11-03T03:38:11.249Z,1015.17
2022-11-03T03:39:11.233Z,1015.14
2022-11-03T03:40:11.242Z,1015.09
2022-11-03T03:41:11.229Z,1015.14
2022-11-03T03:42:11.233Z,1015.09
2022-11-03T03:43:11.243Z,1015.12
2022-11-03T03:44:11.225Z,1015.05
2022-11-03T03:45:11.226Z,1015.04
2022-11-03T03:46:11.229Z,1015.04
2022-11-03T03:47:11.223Z,1015.02
2022-11-03T03:48:11.414Z,1015.03
2022-11-03T03:49:11.211Z,1015.00
2022-11-03T03:50:11.204Z,1015.02
2022-11-03T03:51:11.209Z,1015.01
2022-11-03T03:52:11.222Z,1014.99
2022-11-03T03:53:11.195Z,1015.05
2022-11-03T03:54:11.235Z,1015.02
2022-11-03T03:55:11.233Z,1015.03
2022-11-03T03:56:11.205Z,1015.08
2022-11-03T03:57:11.195Z,1015.05
2022-11-03T03:58:11.182Z,1015.05
2022-11-03T03:59:11.187Z,1015.06
2022-11-03T04:00:11.189Z,1015.02
2022-11-03T04:01:11.293Z,1015.04
2022-11-03T04:02:11.328Z,1015.09
2022-11-03T04:03:11.170Z,1015.07
2022-11-03T04:04:11.192Z,1015.04
2022-11-03T04:05:11.167Z,1015.03
2022-11-03T04:06:11.179Z,1015.04
2022-11-03T04:07:11.164Z,1014.98
2022-11-03T04:08:11.158Z,1015.01
2022-11-03T04:09:11.162Z,1014.96
2022-11-03T04:10:11.164Z,1014.99
2022-11-03T04:11:11.169Z,1015.00
2022-11-03T04:12:11.154Z,1015.01
2022-11-03T04:13:11.156Z,1014.99
2022-11-03T04:14:11.148Z,1014.98
2022-11-03T04:15:11.175Z,1014.93
2022-11-03T04:16:11.146Z,1014.91
2022-11-03T04:17:11.156Z,1014.91
2022-11-03T04:18:11.129Z,1014.93
2022-11-03T04:19:11.125Z,1014.93
2022-11-03T04:20:11.128Z,1014.92
2022-11-03T04:21:11.145Z,1014.90
2022-11-03T04:22:11.135Z,1014.89
2022-11-03T04:23:11.125Z,1014.89
2022-11-03T04:24:11.116Z,1014.94
2022-11-03T04:25:11.115Z,1014.96
2022-11-03T04:26:11.112Z,1014.95
2022-11-03T04:27:11.116Z,1014.91
2022-11-03T04:28:11.120Z,1014.90
2022-11-03T04:29:11.120Z,1014.84
2022-11-03T04:30:11.123Z,1014.86
2022-11-03T04:31:11.095Z,1014.82
2022-11-03T04:32:11.117Z,1014.80
2022-11-03T04:33:11.108Z,1014.79
2022-11-03T04:34:11.126Z,1014.80
2022-11-03T04:35:11.095Z,1014.80
2022-11-03T04:36:11.093Z,1014.76
2022-11-03T04:37:11.116Z,1014.76
2022-11-03T04:38:11.080Z,1014.75
2022-11-03T04:39:11.089Z,1014.71
2022-11-03T04:40:11.083Z,1014.71
2022-11-03T04:41:11.088Z,1014.68
2022-11-03T04:42:11.083Z,1014.70
2022-11-03T04:43:11.085Z,1014.71
2022-11-03T04:44:11.098Z,1014.64
2022-11-03T04:45:11.066Z,1014.64
2022-11-03T04:46:11.070Z,1014.66
2022-11-03T04:47:11.068Z,1014.68
2022-11-03T04:48:11.060Z,1014.71
2022-11-03T04:49:11.052Z,1014.65
2022-11-03T04:50:11.059Z,1014.63
2022-11-03T04:51:11.050Z,1014.67
2022-11-03T04:52:11.056Z,1014.70
2022-11-03T04:53:11.060Z,1014.67
2022-11-03T04:54:11.092Z,1014.63
2022-11-03T04:55:11.037Z,1014.63
2022-11-03T04:56:11.043Z,1014.60
2022-11-03T04:57:11.070Z,1014.67
2022-11-03T04:58:11.037Z,1014.60
2022-11-03T04:59:11.068Z,1014.66
2022-11-03T05:00:11.049Z,1014.63
2022-11-03T05:01:11.223Z,1014.60
2022-11-03T05:02:11.077Z,1014.57
2022-11-03T05:03:11.263Z,1014.51
2022-11-03T05:04:11.015Z,1014.56
2022-11-03T05:05:11.024Z,1014.58
2022-11-03T05:06:11.024Z,1014.56
2022-11-03T05:07:11.026Z,1014.58
2022-11-03T05:08:11.013Z,1014.57
2022-11-03T05:09:11.019Z,1014.58
2022-11-03T05:10:11.009Z,1014.57
2022-11-03T05:11:11.042Z,1014.55
2022-11-03T05:12:11.007Z,1014.57
2022-11-03T05:13:11.008Z,1014.54
2022-11-03T05:14:11.017Z,1014.53
2022-11-03T05:15:11.024Z,1014.51
2022-11-03T05:16:10.993Z,1014.47
2022-11-03T05:17:10.995Z,1014.46
2022-11-03T05:18:10.988Z,1014.47
2022-11-03T05:19:10.978Z,1014.40
2022-11-03T05:20:11.063Z,1014.40
2022-11-03T05:21:11.003Z,1014.37
2022-11-03T05:22:10.976Z,1014.34
2022-11-03T05:23:10.979Z,1014.30
2022-11-03T05:24:11.016Z,1014.35
2022-11-03T05:25:10.981Z,1014.25
2022-11-03T05:26:10.968Z,1014.26
2022-11-03T05:27:10.977Z,1014.18
2022-11-03T05:28:10.961Z,1014.23
2022-11-03T05:29:10.957Z,1014.28
2022-11-03T05:30:10.953Z,1014.15
2022-11-03T05:31:10.973Z,1014.12
2022-11-03T05:32:10.955Z,1014.22
2022-11-03T05:33:10.943Z,1014.13
2022-11-03T05:34:10.953Z,1014.15
2022-11-03T05:35:10.945Z,1014.16
2022-11-03T05:36:10.957Z,1014.17
2022-11-03T05:37:10.950Z,1014.10
2022-11-03T05:38:10.945Z,1014.14
2022-11-03T05:39:10.939Z,1014.13
2022-11-03T05:40:10.942Z,1014.12
2022-11-03T05:41:10.925Z,1014.09
2022-11-03T05:42:10.936Z,1014.12
2022-11-03T05:43:12.356Z,1014.11
2022-11-03T05:44:10.926Z,1014.10
2022-11-03T05:45:10.917Z,1014.08
2022-11-03T05:46:10.927Z,1014.06
2022-11-03T05:47:10.938Z,1014.02
2022-11-03T05:48:10.934Z,1014.02
2022-11-03T05:49:10.903Z,1014.05
2022-11-03T05:50:10.912Z,1014.09
2022-11-03T05:51:10.905Z,1014.11
2022-11-03T05:52:10.899Z,1014.07
2022-11-03T05:53:10.911Z,1014.06
2022-11-03T05:54:14.305Z,1014.08
2022-11-03T05:55:10.900Z,1014.08
2022-11-03T05:56:10.910Z,1014.06
2022-11-03T05:57:10.905Z,1014.06
2022-11-03T05:58:10.879Z,1014.02
2022-11-03T05:59:10.912Z,1014.02
2022-11-03T06:00:10.875Z,1014.05
2022-11-03T06:01:10.902Z,1014.03
2022-11-03T06:02:10.956Z,1014.03
2022-11-03T06:03:10.865Z,1014.04
2022-11-03T06:04:10.888Z,1013.99
2022-11-03T06:05:10.899Z,1014.01
2022-11-03T06:06:10.864Z,1014.00
2022-11-03T06:07:10.866Z,1014.02
2022-11-03T06:08:10.942Z,1013.99
2022-11-03T06:09:10.860Z,1014.04
2022-11-03T06:10:10.869Z,1014.05
2022-11-03T06:11:10.844Z,1014.05
2022-11-03T06:12:10.837Z,1014.08
2022-11-03T06:13:10.848Z,1014.07
2022-11-03T06:14:10.886Z,1014.02
2022-11-03T06:15:10.835Z,1014.04
2022-11-03T06:16:10.841Z,1014.07
2022-11-03T06:17:10.839Z,1014.10
2022-11-03T06:18:10.828Z,1014.07
2022-11-03T06:19:10.845Z,1014.10
2022-11-03T06:20:11.309Z,1014.12
2022-11-03T06:21:10.821Z,1014.10
2022-11-03T06:22:10.815Z,1014.15
2022-11-03T06:23:10.819Z,1014.14
2022-11-03T06:24:10.825Z,1014.16
2022-11-03T06:25:10.834Z,1014.14
2022-11-03T06:26:10.848Z,1014.11
2022-11-03T06:27:10.810Z,1014.15
2022-11-03T06:28:10.816Z,1014.15
2022-11-03T06:29:10.807Z,1014.12
2022-11-03T06:30:10.792Z,1014.11
2022-11-03T06:31:10.793Z,1014.15
2022-11-03T06:32:10.895Z,1014.11
2022-11-03T06:33:10.802Z,1014.08
2022-11-03T06:34:10.788Z,1014.11
2022-11-03T06:35:10.799Z,1014.16
2022-11-03T06:36:10.803Z,1014.09
2022-11-03T06:37:13.482Z,1014.13
2022-11-03T06:38:10.795Z,1014.12
2022-11-03T06:39:10.785Z,1014.10
2022-11-03T06:40:10.761Z,1014.11
2022-11-03T06:41:10.757Z,1014.12
2022-11-03T06:42:10.775Z,1014.14
2022-11-03T06:43:10.783Z,1014.14
2022-11-03T06:44:10.787Z,1014.14
2022-11-03T06:45:10.769Z,1014.11
2022-11-03T06:46:10.778Z,1014.11
2022-11-03T06:47:10.748Z,1014.11
2022-11-03T06:48:10.765Z,1014.11
2022-11-03T06:49:10.770Z,1014.15
2022-11-03T06:50:10.773Z,1014.13
2022-11-03T06:51:10.744Z,1014.10
2022-11-03T06:52:10.746Z,1014.04
2022-11-03T06:53:10.750Z,1014.07
2022-11-03T06:54:10.746Z,1014.05
2022-11-03T06:55:13.817Z,1014.07
2022-11-03T06:56:10.749Z,1014.03
2022-11-03T06:57:10.721Z,1014.01
2022-11-03T06:58:10.735Z,1013.97
2022-11-03T06:59:10.721Z,1014.02
2022-11-03T07:00:33.048Z,1013.95
2022-11-03T07:01:10.927Z,1013.91
2022-11-03T07:02:10.834Z,1013.83
2022-11-03T07:03:10.708Z,1013.88
2022-11-03T07:04:10.731Z,1013.81
2022-11-03T07:05:10.707Z,1013.82
2022-11-03T07:06:10.713Z,1013.80
2022-11-03T07:07:10.716Z,1013.73
2022-11-03T07:08:10.719Z,1013.78
2022-11-03T07:09:10.714Z,1013.82
2022-11-03T07:10:10.709Z,1013.81
2022-11-03T07:11:10.714Z,1013.88
2022-11-03T07:12:10.692Z,1013.88
2022-11-03T07:13:10.916Z,1013.84
2022-11-03T07:14:10.689Z,1013.92
2022-11-03T07:15:10.690Z,1013.87
2022-11-03T07:16:13.476Z,1013.92
2022-11-03T07:17:10.673Z,1013.85
2022-11-03T07:18:10.683Z,1013.89
2022-11-03T07:19:10.682Z,1013.92
2022-11-03T07:20:10.672Z,1013.87
2022-11-03T07:21:10.680Z,1013.88
2022-11-03T07:22:10.698Z,1013.90
2022-11-03T07:23:10.663Z,1013.91
2022-11-03T07:24:10.695Z,1013.98
2022-11-03T07:25:10.676Z,1013.95
2022-11-03T07:26:10.657Z,1013.93
2022-11-03T07:27:10.669Z,1013.97
2022-11-03T07:28:10.657Z,1013.96
2022-11-03T07:29:10.651Z,1014.00
2022-11-03T07:30:10.639Z,1013.99
2022-11-03T07:31:15.989Z,1014.00
2022-11-03T07:32:10.631Z,1013.97
2022-11-03T07:33:10.666Z,1013.99
2022-11-03T07:34:10.788Z,1014.01
2022-11-03T07:35:10.640Z,1013.96
2022-11-03T07:36:15.941Z,1014.00
2022-11-03T07:38:10.625Z,1013.98
2022-11-03T07:39:10.634Z,1013.99
2022-11-03T07:40:10.646Z,1013.97
2022-11-03T07:41:10.669Z,1013.99
2022-11-03T07:42:10.647Z,1013.99
2022-11-03T07:43:10.628Z,1013.99
2022-11-03T07:44:10.638Z,1013.92
2022-11-03T07:45:10.615Z,1013.92
2022-11-03T07:46:10.615Z,1013.95
2022-11-03T07:47:10.634Z,1013.93
2022-11-03T07:48:18.308Z,1013.93
2022-11-03T07:49:10.627Z,1013.96
2022-11-03T07:50:10.622Z,1013.93
2022-11-03T07:51:10.629Z,1013.91
2022-11-03T07:52:10.597Z,1013.88
2022-11-03T07:53:10.614Z,1013.86
2022-11-03T07:54:10.594Z,1013.85
2022-11-03T07:55:10.631Z,1013.79
2022-11-03T07:56:10.664Z,1013.78
2022-11-03T07:57:10.588Z,1013.72
2022-11-03T07:58:10.610Z,1013.74
2022-11-03T07:59:10.623Z,1013.72
2022-11-03T08:00:10.969Z,1013.70
2022-11-03T08:01:10.727Z,1013.75
2022-11-03T08:02:10.687Z,1013.77
2022-11-03T08:03:10.589Z,1013.78
2022-11-03T08:04:10.579Z,1013.75
2022-11-03T08:05:10.679Z,1013.77
2022-11-03T08:06:11.743Z,1013.77
2022-11-03T08:07:10.586Z,1013.74
2022-11-03T08:08:10.582Z,1013.70
2022-11-03T08:09:10.616Z,1013.68
2022-11-03T08:10:10.592Z,1013.73
2022-11-03T08:11:10.601Z,1013.70
2022-11-03T08:12:10.612Z,1013.66
2022-11-03T08:13:10.569Z,1013.66
2022-11-03T08:14:10.574Z,1013.65
2022-11-03T08:15:10.563Z,1013.61
2022-11-03T08:16:10.565Z,1013.65
2022-11-03T08:17:10.581Z,1013.58
2022-11-03T08:18:10.585Z,1013.60
2022-11-03T08:19:10.567Z,1013.60
2022-11-03T08:20:10.564Z,1013.58
2022-11-03T08:21:10.591Z,1013.54
2022-11-03T08:22:10.560Z,1013.52
2022-11-03T08:23:26.619Z,1013.55
2022-11-03T08:24:10.561Z,1013.48
2022-11-03T08:25:10.572Z,1013.44
2022-11-03T08:26:10.568Z,1013.43
2022-11-03T08:27:10.568Z,1013.44
2022-11-03T08:28:10.576Z,1013.40
2022-11-03T08:29:10.555Z,1013.37
2022-11-03T08:30:10.561Z,1013.37
2022-11-03T08:31:12.968Z,1013.36
2022-11-03T08:32:10.565Z,1013.37
2022-11-03T08:33:10.565Z,1013.30
2022-11-03T08:34:10.601Z,1013.31
2022-11-03T08:35:10.547Z,1013.28
2022-11-03T08:36:10.566Z,1013.29
2022-11-03T08:37:10.550Z,1013.25
2022-11-03T08:38:10.632Z,1013.29
2022-11-03T08:39:10.574Z,1013.23
2022-11-03T08:40:10.545Z,1013.28
2022-11-03T08:41:10.552Z,1013.21
2022-11-03T08:42:10.553Z,1013.23
2022-11-03T08:43:10.558Z,1013.18
2022-11-03T08:44:10.545Z,1013.16
2022-11-03T08:45:10.552Z,1013.18
2022-11-03T08:46:17.186Z,1013.18
2022-11-03T08:47:10.545Z,1013.12
2022-11-03T08:48:10.564Z,1013.14
2022-11-03T08:49:10.535Z,1013.12
2022-11-03T08:50:10.542Z,1013.09
2022-11-03T08:51:10.575Z,1013.07
2022-11-03T08:52:10.537Z,1013.09
2022-11-03T08:53:10.551Z,1013.13
2022-11-03T08:54:10.561Z,1013.06
2022-11-03T08:55:10.530Z,1013.08
2022-11-03T08:56:12.814Z,1013.01
2022-11-03T08:57:10.570Z,1013.01
2022-11-03T08:58:10.628Z,1012.96
2022-11-03T08:59:10.546Z,1012.98
2022-11-03T09:00:10.542Z,1012.96
2022-11-03T09:01:10.558Z,1012.93
2022-11-03T09:02:10.542Z,1012.90
2022-11-03T09:03:10.659Z,1012.91
2022-11-03T09:04:10.566Z,1012.89
2022-11-03T09:05:10.533Z,1012.91
2022-11-03T09:06:10.527Z,1012.89
2022-11-03T09:07:10.531Z,1012.92
2022-11-03T09:11:10.525Z,1012.85
2022-11-03T09:12:10.537Z,1012.87
2022-11-03T09:13:10.539Z,1012.78
2022-11-03T09:14:10.543Z,1012.82
2022-11-03T09:15:10.523Z,1012.84
2022-11-03T09:16:10.526Z,1012.75
2022-11-03T09:17:10.529Z,1012.74
2022-11-03T09:18:10.870Z,1012.73
2022-11-03T09:19:10.518Z,1012.73
2022-11-03T09:20:10.528Z,1012.72
2022-11-03T09:21:10.518Z,1012.71
2022-11-03T09:22:10.512Z,1012.68
2022-11-03T09:23:10.519Z,1012.70
2022-11-03T09:24:10.503Z,1012.73
2022-11-03T09:25:10.532Z,1012.67
2022-11-03T09:26:10.603Z,1012.65
2022-11-03T09:27:10.517Z,1012.58
2022-11-03T09:28:10.857Z,1012.61
2022-11-03T09:29:10.498Z,1012.57
2022-11-03T09:30:15.829Z,1012.53
2022-11-03T09:31:10.505Z,1012.51
2022-11-03T09:32:10.494Z,1012.51
2022-11-03T09:33:10.498Z,1012.44
2022-11-03T09:34:10.499Z,1012.46
2022-11-03T09:35:10.498Z,1012.42
2022-11-03T09:36:10.506Z,1012.45
2022-11-03T09:37:10.505Z,1012.49
2022-11-03T09:38:10.669Z,1012.46
2022-11-03T09:39:10.506Z,1012.41
2022-11-03T09:40:10.503Z,1012.40
2022-11-03T09:41:24.826Z,1012.49
2022-11-03T09:42:10.524Z,1012.41
2022-11-03T09:43:10.830Z,1012.44
2022-11-03T09:44:10.491Z,1012.38
2022-11-03T09:45:10.491Z,1012.40
2022-11-03T09:46:10.487Z,1012.34
2022-11-03T09:47:10.504Z,1012.35
2022-11-03T09:48:10.758Z,1012.35
2022-11-03T09:49:10.508Z,1012.30
2022-11-03T09:50:10.501Z,1012.29
2022-11-03T09:51:10.495Z,1012.28
2022-11-03T09:52:10.484Z,1012.25
2022-11-03T09:53:10.533Z,1012.21
2022-11-03T09:54:10.501Z,1012.22
2022-11-03T09:55:10.500Z,1012.20
2022-11-03T09:56:10.507Z,1012.23
2022-11-03T09:57:10.498Z,1012.17
2022-11-03T09:58:10.484Z,1012.18
2022-11-03T09:59:10.498Z,1012.17
2022-11-03T10:00:10.521Z,1012.19
2022-11-03T10:01:10.551Z,1012.17
2022-11-03T10:02:10.586Z,1012.12
2022-11-03T10:03:10.793Z,1012.11
2022-11-03T10:04:10.486Z,1012.13
2022-11-03T10:05:11.314Z,1012.13
2022-11-03T10:06:14.335Z,1012.13
2022-11-03T10:07:10.494Z,1012.07
2022-11-03T10:08:10.496Z,1012.11
2022-11-03T10:09:10.495Z,1012.20
2022-11-03T10:10:10.478Z,1012.11
2022-11-03T10:11:10.488Z,1012.06
2022-11-03T10:12:10.507Z,1012.03
2022-11-03T10:13:10.496Z,1012.00
2022-11-03T10:14:10.497Z,1011.96
2022-11-03T10:15:10.498Z,1011.97
2022-11-03T10:16:10.496Z,1011.96
2022-11-03T10:17:10.499Z,1011.91
2022-11-03T10:18:10.498Z,1011.82
2022-11-03T10:19:10.526Z,1011.84
2022-11-03T10:20:10.507Z,1011.80
2022-11-03T10:21:10.492Z,1011.71
2022-11-03T10:22:10.501Z,1011.72
2022-11-03T10:23:10.501Z,1011.74
2022-11-03T10:24:10.501Z,1011.77
2022-11-03T10:25:10.519Z,1011.66
2022-11-03T10:26:10.516Z,1011.67
2022-11-03T10:27:10.496Z,1011.65
2022-11-03T10:28:14.349Z,1011.66
2022-11-03T10:29:10.549Z,1011.66
2022-11-03T10:30:10.502Z,1011.66
2022-11-03T10:31:12.223Z,1011.60
2022-11-03T10:32:10.509Z,1011.60
2022-11-03T10:33:10.506Z,1011.54
2022-11-03T10:34:10.499Z,1011.56
2022-11-03T10:35:10.511Z,1011.52
2022-11-03T10:36:10.522Z,1011.51
2022-11-03T10:37:10.513Z,1011.52
2022-11-03T10:38:10.514Z,1011.51
2022-11-03T10:39:10.509Z,1011.46
2022-11-03T10:40:22.409Z,1011.47
2022-11-03T10:41:10.512Z,1011.47
2022-11-03T10:42:10.521Z,1011.47
2022-11-03T10:43:10.512Z,1011.47
2022-11-03T10:44:10.515Z,1011.43
2022-11-03T10:45:10.518Z,1011.43
2022-11-03T10:46:23.471Z,1011.40
2022-11-03T10:47:10.517Z,1011.41
2022-11-03T10:48:10.512Z,1011.34
2022-11-03T10:49:10.507Z,1011.27
2022-11-03T10:50:10.505Z,1011.22
2022-11-03T10:51:10.513Z,1011.24
2022-11-03T10:52:10.536Z,1011.21
2022-11-03T10:53:10.845Z,1011.24
2022-11-03T10:54:10.520Z,1011.17
2022-11-03T10:55:10.524Z,1011.19
2022-11-03T10:56:10.504Z,1011.17
2022-11-03T10:57:10.512Z,1011.19
2022-11-03T10:58:10.752Z,1011.16
2022-11-03T10:59:10.507Z,1011.15
2022-11-03T11:00:10.506Z,1011.17
2022-11-03T11:01:10.552Z,1011.13
2022-11-03T11:02:10.661Z,1011.17
2022-11-03T11:03:14.961Z,1011.13
2022-11-03T11:04:10.548Z,1011.13
2022-11-03T11:05:10.512Z,1011.07
2022-11-03T11:06:10.509Z,1011.00
2022-11-03T11:07:10.500Z,1011.08
2022-11-03T11:08:10.542Z,1011.09
2022-11-03T11:09:10.534Z,1011.01
2022-11-03T11:10:10.498Z,1011.00
2022-11-03T11:11:10.497Z,1011.01
2022-11-03T11:12:10.509Z,1011.01
2022-11-03T11:13:10.637Z,1010.99
2022-11-03T11:14:10.496Z,1011.03
2022-11-03T11:15:10.506Z,1010.98
2022-11-03T11:16:10.529Z,1010.95
2022-11-03T11:17:10.507Z,1010.96
2022-11-03T11:18:10.566Z,1010.94
2022-11-03T11:19:10.492Z,1010.93
2022-11-03T11:20:10.491Z,1010.89
2022-11-03T11:21:10.526Z,1010.86
2022-11-03T11:22:10.499Z,1010.83
2022-11-03T11:23:10.817Z,1010.83
2022-11-03T11:24:10.489Z,1010.81
2022-11-03T11:25:10.496Z,1010.78
2022-11-03T11:26:10.778Z,1010.74
2022-11-03T11:27:10.502Z,1010.73
2022-11-03T11:28:10.510Z,1010.67
2022-11-03T11:29:10.502Z,1010.70
2022-11-03T11:30:10.496Z,1010.67
2022-11-03T11:31:10.501Z,1010.66
2022-11-03T11:32:10.486Z,1010.68
2022-11-03T11:33:10.510Z,1010.66
2022-11-03T11:34:10.486Z,1010.64
2022-11-03T11:35:10.498Z,1010.66
2022-11-03T11:36:10.502Z,1010.66
2022-11-03T11:37:10.494Z,1010.62
2022-11-03T11:38:10.505Z,1010.62
2022-11-03T11:39:10.495Z,1010.58
2022-11-03T11:40:10.485Z,1010.50
2022-11-03T11:41:10.493Z,1010.46
2022-11-03T11:42:10.591Z,1010.50
2022-11-03T11:43:10.879Z,1010.49
2022-11-03T11:44:10.494Z,1010.47
2022-11-03T11:45:10.501Z,1010.42
2022-11-03T11:46:10.504Z,1010.44
2022-11-03T11:47:10.490Z,1010.44
2022-11-03T11:48:13.529Z,1010.38
2022-11-03T11:49:10.487Z,1010.42
2022-11-03T11:50:10.487Z,1010.36
2022-11-03T11:51:10.475Z,1010.35
2022-11-03T11:52:15.274Z,1010.28
2022-11-03T11:53:10.780Z,1010.29
2022-11-03T11:54:18.477Z,1010.25
2022-11-03T11:55:10.531Z,1010.24
2022-11-03T11:56:10.488Z,1010.22
2022-11-03T11:57:10.477Z,1010.21
2022-11-03T11:58:10.468Z,1010.22
2022-11-03T11:59:10.477Z,1010.18
2022-11-03T12:00:10.503Z,1010.20
2022-11-03T12:01:10.504Z,1010.13
2022-11-03T12:02:10.469Z,1010.15
2022-11-03T12:03:10.945Z,1010.18
2022-11-03T12:04:10.573Z,1010.16
2022-11-03T12:05:10.485Z,1010.11
2022-11-03T12:06:10.466Z,1010.12
2022-11-03T12:07:10.501Z,1010.03
2022-11-03T12:08:10.469Z,1010.07
2022-11-03T12:09:10.477Z,1010.04
2022-11-03T12:10:10.463Z,1010.04